Time;durP1;ratioP1;P1;durP2;ratioP2;P2;SDS_P1;SDS_P2;PMS_P1;PMS_P2;Temp;Humidity;BMP_temperature;BMP_pressure;BME280_temperature;BME280_humidity;BME280_pressure;Samples;Min_cycle;Max_cycle;Signal;HPM_P1;HPM_P2
2023/09/16 00:01:21;;;;;;;2.15;1.95;;;13.70;71.80;;;;;;5016340;28;20045;-68
2023/09/16 00:03:47;;;;;;;2.20;2.00;;;13.70;70.80;;;;;;5016146;28;20045;-67
2023/09/16 00:06:13;;;;;;;2.08;1.98;;;13.60;71.70;;;;;;5017380;28;20432;-73
2023/09/16 00:08:39;;;;;;;1.95;1.85;;;13.80;74.40;;;;;;5003118;28;20128;-73
2023/09/16 00:11:09;;;;;;;2.03;1.92;;;13.60;70.50;;;;;;5021608;28;20041;-73
2023/09/16 00:13:34;;;;;;;2.03;1.83;;;13.60;72.00;;;;;;5005173;28;20080;-73
2023/09/16 00:16:00;;;;;;;1.80;1.70;;;13.60;68.50;;;;;;5021046;28;20485;-66
2023/09/16 00:18:25;;;;;;;2.13;1.92;;;13.60;71.90;;;;;;5033650;28;20084;-66
2023/09/16 00:20:52;;;;;;;1.85;1.75;;;13.60;71.30;;;;;;5015922;28;20041;-67
2023/09/16 00:23:18;;;;;;;2.20;2.10;;;13.60;70.30;;;;;;5015843;28;20416;-66
2023/09/16 00:25:45;;;;;;;2.17;1.98;;;13.70;76.30;;;;;;5033791;28;20049;-67
2023/09/16 00:28:11;;;;;;;2.47;2.10;;;13.50;81.30;;;;;;5015634;28;20057;-66
2023/09/16 00:30:38;;;;;;;1.90;1.80;;;13.70;80.70;;;;;;4999473;28;20035;-66
2023/09/16 00:33:04;;;;;;;1.80;1.70;;;13.50;75.80;;;;;;5033460;28;20045;-67
2023/09/16 00:35:30;;;;;;;2.00;1.80;;;13.50;73.50;;;;;;5015850;28;20038;-66
2023/09/16 00:37:56;;;;;;;1.85;1.75;;;13.40;73.50;;;;;;5033139;28;20044;-66
2023/09/16 00:40:21;;;;;;;2.40;2.20;;;13.40;73.20;;;;;;5015886;28;20037;-66
2023/09/16 00:42:47;;;;;;;2.10;1.85;;;13.30;72.60;;;;;;5015656;28;20049;-67
2023/09/16 00:45:14;;;;;;;2.58;2.38;;;13.40;72.40;;;;;;5015099;28;20042;-66
2023/09/16 00:47:40;;;;;;;2.05;1.95;;;13.30;74.80;;;;;;5015331;28;20045;-67
2023/09/16 00:50:07;;;;;;;2.38;2.17;;;13.30;76.80;;;;;;5015457;28;20086;-66
2023/09/16 00:52:35;;;;;;;2.17;2.00;;;13.30;76.50;;;;;;5015646;28;20508;-66
2023/09/16 00:55:01;;;;;;;2.38;2.20;;;13.30;77.80;;;;;;5033270;28;20041;-67
2023/09/16 00:57:29;;;;;;;2.03;1.90;;;13.20;79.10;;;;;;5015636;28;20038;-67
2023/09/16 00:59:55;;;;;;;2.40;2.20;;;13.10;80.50;;;;;;5015274;28;20131;-66
2023/09/16 01:02:21;;;;;;;1.73;1.63;;;13.20;82.50;;;;;;5015264;28;20092;-66
2023/09/16 01:04:47;;;;;;;2.38;2.17;;;13.20;81.30;;;;;;5033189;28;20038;-66
2023/09/16 01:07:14;;;;;;;2.03;1.92;;;13.10;84.10;;;;;;5015231;28;20052;-67
2023/09/16 01:09:41;;;;;;;1.98;1.88;;;13.10;90.00;;;;;;5014947;28;20124;-67
2023/09/16 01:12:08;;;;;;;2.53;2.30;;;13.10;89.20;;;;;;5015143;28;20077;-67
2023/09/16 01:14:33;;;;;;;2.35;2.15;;;13.00;89.50;;;;;;5032925;28;20037;-67
2023/09/16 01:17:05;;;;;;;2.15;2.05;;;13.10;90.90;;;;;;5014971;28;20104;-67
2023/09/16 01:19:40;;;;;;;2.50;2.30;;;13.00;92.70;;;;;;5015348;28;20085;-67
2023/09/16 01:22:07;;;;;;;2.80;2.03;;;13.00;96.30;;;;;;5015284;28;20469;-66
2023/09/16 01:24:33;;;;;;;2.30;2.10;;;13.00;96.00;;;;;;5015243;28;20056;-66
2023/09/16 01:26:58;;;;;;;2.20;2.00;;;13.10;96.70;;;;;;5015319;28;20049;-66
2023/09/16 01:29:25;;;;;;;2.40;2.20;;;13.00;95.60;;;;;;5032892;28;20044;-66
2023/09/16 01:31:51;;;;;;;2.03;1.88;;;13.00;95.20;;;;;;5015158;28;20478;-67
2023/09/16 01:34:41;;;;;;;2.13;2.03;;;13.00;98.30;;;;;;5015606;28;20041;-67
2023/09/16 01:37:11;;;;;;;2.50;2.30;;;13.00;99.50;;;;;;5008994;28;20057;-68
2023/09/16 01:39:39;;;;;;;2.17;2.00;;;13.00;99.10;;;;;;5015108;28;20038;-66
2023/09/16 01:42:05;;;;;;;2.10;1.90;;;13.00;99.30;;;;;;5015307;28;20052;-67
2023/09/16 01:44:31;;;;;;;2.38;2.17;;;13.00;99.90;;;;;;5014849;28;20046;-67
2023/09/16 01:46:57;;;;;;;2.50;2.30;;;13.00;99.90;;;;;;5014904;28;20049;-67
2023/09/16 01:49:23;;;;;;;2.42;2.22;;;13.00;99.90;;;;;;5014822;28;20382;-66
2023/09/16 01:51:49;;;;;;;2.20;2.03;;;13.00;99.90;;;;;;5014776;28;20050;-67
2023/09/16 01:54:14;;;;;;;2.03;1.90;;;13.00;99.90;;;;;;5014795;28;20405;-67
2023/09/16 01:56:41;;;;;;;2.30;2.10;;;13.00;99.90;;;;;;4998426;28;20454;-67
2023/09/16 01:59:07;;;;;;;2.30;2.10;;;13.00;99.90;;;;;;5018308;28;20044;-67
2023/09/16 02:01:32;;;;;;;2.10;2.00;;;13.10;99.90;;;;;;5018548;28;20041;-67
2023/09/16 02:03:58;;;;;;;2.00;1.90;;;13.00;99.90;;;;;;5036223;28;20499;-67
2023/09/16 02:06:23;;;;;;;2.50;2.30;;;13.00;99.90;;;;;;5018192;28;20489;-67
2023/09/16 02:08:49;;;;;;;2.22;2.05;;;13.00;99.90;;;;;;5018197;28;20049;-67
2023/09/16 02:11:15;;;;;;;2.30;2.10;;;12.90;99.90;;;;;;5018281;28;20408;-67
2023/09/16 02:13:40;;;;;;;2.50;2.30;;;12.90;99.90;;;;;;5035884;28;20485;-68
2023/09/16 02:16:06;;;;;;;2.10;2.00;;;12.90;99.90;;;;;;5001809;28;20049;-67
2023/09/16 02:18:31;;;;;;;2.35;2.22;;;12.80;99.90;;;;;;5002045;28;20056;-67
2023/09/16 02:20:57;;;;;;;2.50;2.30;;;12.80;99.90;;;;;;5018301;28;20091;-67
2023/09/16 02:23:23;;;;;;;1.90;1.80;;;12.90;99.90;;;;;;5001696;28;20090;-67
2023/09/16 02:25:48;;;;;;;2.47;2.28;;;12.80;99.90;;;;;;5018212;28;20424;-67
2023/09/16 02:28:14;;;;;;;2.42;2.22;;;12.80;99.90;;;;;;5017841;28;20045;-67
2023/09/16 02:30:40;;;;;;;2.13;2.03;;;12.80;99.90;;;;;;5035537;28;20508;-67
2023/09/16 02:33:05;;;;;;;2.65;2.45;;;12.80;99.90;;;;;;5017833;28;20045;-67
2023/09/16 02:35:31;;;;;;;2.50;2.30;;;12.80;99.90;;;;;;5017690;28;20386;-67
2023/09/16 02:38:02;;;;;;;2.20;1.98;;;12.80;99.90;;;;;;5035602;28;20247;-67
2023/09/16 02:40:28;;;;;;;2.15;2.03;;;12.80;99.90;;;;;;5017571;28;20107;-67
2023/09/16 02:42:54;;;;;;;1.90;1.80;;;12.80;99.90;;;;;;5001274;28;20041;-67
2023/09/16 02:45:20;;;;;;;2.20;2.00;;;12.70;99.90;;;;;;5035286;28;20053;-67
2023/09/16 02:47:46;;;;;;;1.98;1.88;;;12.70;99.90;;;;;;5017462;28;20033;-67
2023/09/16 02:50:11;;;;;;;2.60;2.40;;;12.70;99.90;;;;;;5016764;28;20132;-67
2023/09/16 02:52:37;;;;;;;2.67;2.47;;;12.70;99.90;;;;;;5017455;28;20056;-67
2023/09/16 02:55:03;;;;;;;2.55;2.35;;;12.70;99.90;;;;;;5001295;28;20041;-67
2023/09/16 02:57:28;;;;;;;2.72;2.53;;;12.70;99.90;;;;;;5017519;28;20033;-67
2023/09/16 02:59:54;;;;;;;2.40;2.20;;;12.60;99.90;;;;;;5000940;28;20059;-70
2023/09/16 03:02:27;;;;;;;2.50;2.30;;;12.60;99.90;;;;;;5034967;28;20041;-67
2023/09/16 03:04:53;;;;;;;2.30;2.10;;;12.60;99.90;;;;;;5017199;28;20148;-68
2023/09/16 03:07:18;;;;;;;2.10;1.98;;;12.60;99.90;;;;;;5033721;28;20044;-67
2023/09/16 03:09:44;;;;;;;2.80;2.60;;;12.60;99.90;;;;;;5034672;28;20037;-68
2023/09/16 03:12:10;;;;;;;2.90;2.60;;;12.60;99.90;;;;;;5000696;28;20041;-67
2023/09/16 03:14:35;;;;;;;2.40;2.20;;;12.60;99.90;;;;;;5016991;28;20037;-67
2023/09/16 03:17:01;;;;;;;2.78;2.58;;;12.60;99.90;;;;;;5016853;28;20060;-67
2023/09/16 03:19:28;;;;;;;2.40;2.20;;;12.60;99.90;;;;;;5016823;28;20520;-67
2023/09/16 03:21:54;;;;;;;2.90;2.70;;;12.50;99.90;;;;;;5034591;28;20404;-67
2023/09/16 03:24:19;;;;;;;2.85;2.65;;;12.50;99.90;;;;;;5017168;28;20033;-67
2023/09/16 03:26:45;;;;;;;2.53;2.33;;;12.50;99.90;;;;;;5016720;28;20041;-67
2023/09/16 03:29:11;;;;;;;2.28;2.13;;;12.50;99.90;;;;;;5016704;28;20481;-67
2023/09/16 03:31:37;;;;;;;2.38;2.20;;;13.50;99.90;;;;;;5034336;28;20049;-67
2023/09/16 03:34:03;;;;;;;2.45;2.25;;;12.50;99.90;;;;;;5016741;28;20083;-67
2023/09/16 03:36:28;;;;;;;2.25;1.90;;;12.50;99.90;;;;;;5016838;28;20033;-67
2023/09/16 03:38:54;;;;;;;2.25;2.15;;;12.50;99.90;;;;;;5034548;28;20120;-67
2023/09/16 03:41:20;;;;;;;2.45;2.25;;;12.50;99.90;;;;;;5034133;28;20076;-67
2023/09/16 03:43:48;;;;;;;2.15;2.05;;;12.50;99.90;;;;;;5000135;28;20132;-67
2023/09/16 03:46:20;;;;;;;2.45;2.25;;;12.40;99.90;;;;;;5016365;28;20448;-67
2023/09/16 03:48:45;;;;;;;2.35;2.20;;;12.40;99.90;;;;;;5016309;28;20076;-74
2023/09/16 03:51:12;;;;;;;2.40;2.20;;;12.40;99.90;;;;;;5016712;28;20077;-74
2023/09/16 03:53:38;;;;;;;2.10;2.00;;;12.70;99.90;;;;;;5016350;28;20053;-74
2023/09/16 03:56:08;;;;;;;1.85;1.75;;;12.30;99.90;;;;;;5016899;28;20037;-74
2023/09/16 03:58:34;;;;;;;2.20;2.00;;;12.20;99.90;;;;;;5000878;28;20124;-74
2023/09/16 04:01:00;;;;;;;2.55;2.35;;;12.30;99.90;;;;;;4999948;28;20107;-74
2023/09/16 04:03:26;;;;;;;2.30;2.10;;;13.80;99.90;;;;;;5016267;28;20045;-74
2023/09/16 04:05:56;;;;;;;1.77;1.67;;;12.20;99.90;;;;;;5000685;28;20118;-74
2023/09/16 04:08:22;;;;;;;2.40;2.20;;;12.30;99.90;;;;;;5020877;28;20052;-74
2023/09/16 04:10:48;;;;;;;2.60;2.40;;;12.30;99.90;;;;;;5018158;28;20393;-74
2023/09/16 04:13:14;;;;;;;2.50;2.30;;;12.30;99.90;;;;;;5001243;28;20057;-75
2023/09/16 04:15:39;;;;;;;2.47;2.30;;;12.30;99.90;;;;;;5018577;28;20046;-74
2023/09/16 04:18:05;;;;;;;2.60;2.40;;;13.20;99.90;;;;;;5017189;28;20045;-74
2023/09/16 04:20:31;;;;;;;2.83;2.63;;;12.30;99.90;;;;;;5016319;28;20038;-74
2023/09/16 04:22:56;;;;;;;2.50;2.30;;;12.30;99.90;;;;;;5000022;28;20038;-74
2023/09/16 04:25:23;;;;;;;2.53;2.33;;;12.30;99.90;;;;;;5017027;28;20095;-75
2023/09/16 04:27:49;;;;;;;3.42;2.80;;;12.30;99.90;;;;;;5002442;28;20045;-74
2023/09/16 04:30:14;;;;;;;2.50;2.30;;;12.50;99.90;;;;;;5019064;28;20045;-74
2023/09/16 04:32:40;;;;;;;2.20;2.00;;;12.30;99.90;;;;;;4999516;28;20049;-75
2023/09/16 04:35:07;;;;;;;2.95;2.72;;;12.30;99.90;;;;;;5015828;28;20053;-75
2023/09/16 04:37:32;;;;;;;2.38;2.17;;;12.30;99.90;;;;;;5016509;28;20080;-75
2023/09/16 04:39:58;;;;;;;2.15;1.95;;;12.30;99.90;;;;;;5015834;28;20079;-74
2023/09/16 04:42:30;;;;;;;2.70;2.50;;;12.30;99.90;;;;;;5015941;28;20052;-74
2023/09/16 04:44:56;;;;;;;2.28;2.08;;;12.30;99.90;;;;;;5016102;28;20489;-74
2023/09/16 04:47:21;;;;;;;2.28;2.08;;;12.30;99.90;;;;;;5015632;28;20052;-74
2023/09/16 04:49:48;;;;;;;2.13;2.03;;;12.30;99.90;;;;;;5015377;28;20476;-74
2023/09/16 04:52:14;;;;;;;2.70;2.50;;;12.20;99.90;;;;;;5015388;28;20033;-74
2023/09/16 04:54:40;;;;;;;2.10;2.00;;;12.20;99.90;;;;;;5015185;28;20187;-74
2023/09/16 04:57:06;;;;;;;2.20;2.03;;;12.20;99.90;;;;;;4999278;28;20045;-68
2023/09/16 04:59:34;;;;;;;2.38;2.17;;;12.20;99.90;;;;;;5015086;28;20045;-69
2023/09/16 05:02:00;;;;;;;2.40;2.25;;;12.20;99.90;;;;;;5015033;28;20045;-69
2023/09/16 05:04:26;;;;;;;2.75;2.20;;;12.10;99.90;;;;;;5015188;28;20353;-69
2023/09/16 05:06:52;;;;;;;2.38;2.17;;;12.10;99.90;;;;;;5015401;28;20409;-68
2023/09/16 05:09:20;;;;;;;2.47;2.28;;;12.10;99.90;;;;;;4998766;28;20053;-67
2023/09/16 05:11:46;;;;;;;2.33;2.13;;;12.00;99.90;;;;;;5015050;28;20125;-67
2023/09/16 05:14:12;;;;;;;2.10;2.00;;;12.00;99.90;;;;;;5032745;28;20112;-67
2023/09/16 05:16:37;;;;;;;1.90;1.80;;;12.00;99.90;;;;;;5014841;28;20049;-67
2023/09/16 05:19:03;;;;;;;1.90;1.80;;;12.00;99.90;;;;;;5033025;28;20460;-67
2023/09/16 05:21:29;;;;;;;2.30;2.20;;;12.00;99.90;;;;;;5014854;28;20128;-67
2023/09/16 05:23:55;;;;;;;2.13;1.92;;;12.10;99.90;;;;;;5014967;28;20053;-67
2023/09/16 05:26:20;;;;;;;2.08;1.88;;;12.00;99.90;;;;;;5015243;28;20382;-66
2023/09/16 05:28:46;;;;;;;1.60;1.50;;;12.00;99.90;;;;;;5014898;28;20038;-67
2023/09/16 05:31:11;;;;;;;1.40;1.30;;;12.00;99.90;;;;;;5015431;28;20044;-67
2023/09/16 05:33:37;;;;;;;1.40;1.30;;;11.90;99.90;;;;;;5036877;28;20037;-67
2023/09/16 05:36:03;;;;;;;0.93;0.93;;;11.90;99.90;;;;;;5019236;28;20343;-67
2023/09/16 05:38:28;;;;;;;1.23;1.17;;;11.90;99.90;;;;;;5018805;28;20053;-66
2023/09/16 05:40:54;;;;;;;1.63;1.17;;;11.90;99.90;;;;;;5018734;28;20052;-67
2023/09/16 05:43:19;;;;;;;1.33;1.23;;;12.10;99.90;;;;;;5036426;28;20033;-67
2023/09/16 05:45:50;;;;;;;1.05;1.05;;;11.90;99.90;;;;;;5018922;28;20087;-67
2023/09/16 05:48:16;;;;;;;;;;;11.90;99.90;;;;;;5019225;28;20046;-67
2023/09/16 05:50:41;;;;;;;1.35;1.25;;;12.00;99.90;;;;;;5018462;28;19940;-66
2023/09/16 05:53:07;;;;;;;1.40;1.30;;;12.00;99.90;;;;;;5002480;28;20405;-67
2023/09/16 05:55:40;;;;;;;1.63;1.52;;;12.00;99.90;;;;;;5018444;28;20048;-67
2023/09/16 05:58:07;;;;;;;1.20;1.20;;;12.00;99.90;;;;;;5036254;28;20504;-67
2023/09/16 06:00:33;;;;;;;1.45;1.35;;;12.00;99.90;;;;;;5018307;28;20052;-67
2023/09/16 06:02:58;;;;;;;1.20;1.20;;;12.10;99.90;;;;;;5018640;28;20038;-67
2023/09/16 06:05:29;;;;;;;1.00;1.00;;;12.10;99.90;;;;;;5002088;28;20033;-67
2023/09/16 06:07:54;;;;;;;1.25;1.17;;;12.10;99.90;;;;;;5002384;28;20055;-68
2023/09/16 06:10:20;;;;;;;1.15;1.08;;;12.20;99.90;;;;;;5018346;28;20424;-69
2023/09/16 06:12:46;;;;;;;1.00;1.00;;;12.20;99.90;;;;;;5018258;28;20125;-68
2023/09/16 06:15:12;;;;;;;1.10;1.10;;;12.20;99.90;;;;;;5035858;28;20478;-69
2023/09/16 06:17:37;;;;;;;0.90;0.90;;;12.40;99.90;;;;;;5036039;28;20053;-69
2023/09/16 06:20:03;;;;;;;0.90;0.90;;;12.60;99.90;;;;;;5017979;28;20041;-68
2023/09/16 06:22:29;;;;;;;0.80;0.80;;;12.40;99.90;;;;;;5035959;28;20124;-69
2023/09/16 06:24:55;;;;;;;0.90;0.90;;;12.50;99.90;;;;;;5035715;28;20116;-69
2023/09/16 06:27:20;;;;;;;1.02;1.02;;;12.50;99.90;;;;;;5001528;28;20041;-69
2023/09/16 06:29:46;;;;;;;0.98;0.98;;;12.60;99.90;;;;;;5035760;28;20405;-69
2023/09/16 06:32:12;;;;;;;1.00;1.00;;;12.70;99.90;;;;;;5017825;28;20095;-71
2023/09/16 06:34:38;;;;;;;1.50;1.38;;;12.70;99.90;;;;;;5001429;28;20041;-70
2023/09/16 06:37:05;;;;;;;1.65;1.55;;;12.80;99.90;;;;;;5035714;28;20044;-69
2023/09/16 06:39:32;;;;;;;1.55;1.45;;;13.00;99.90;;;;;;5035656;28;20053;-69
2023/09/16 06:41:57;;;;;;;1.52;1.42;;;13.10;99.90;;;;;;5035295;28;20068;-66
2023/09/16 06:44:23;;;;;;;1.90;1.70;;;13.20;99.90;;;;;;5034935;28;20037;-69
2023/09/16 06:46:49;;;;;;;1.70;1.60;;;13.30;99.90;;;;;;5017527;28;20045;-66
2023/09/16 06:49:15;;;;;;;2.20;2.00;;;13.30;99.90;;;;;;5034185;28;20044;-66
2023/09/16 06:51:40;;;;;;;1.83;1.73;;;13.40;99.90;;;;;;5017452;28;20443;-67
2023/09/16 06:54:06;;;;;;;2.35;2.15;;;13.90;99.90;;;;;;5017475;28;20045;-64
2023/09/16 06:56:31;;;;;;;3.08;2.88;;;13.70;99.90;;;;;;5035133;28;20405;-66
2023/09/16 06:58:59;;;;;;;2.67;2.47;;;13.70;99.90;;;;;;5035248;28;20041;-66
2023/09/16 07:01:24;;;;;;;2.95;2.75;;;13.80;99.90;;;;;;5017301;28;20125;-68
2023/09/16 07:03:50;;;;;;;2.58;2.38;;;13.90;99.90;;;;;;5035238;28;20076;-66
2023/09/16 07:06:16;;;;;;;3.15;2.95;;;14.00;99.90;;;;;;5035218;28;20037;-71
2023/09/16 07:08:41;;;;;;;2.60;2.40;;;14.90;99.90;;;;;;5034794;28;20045;-69
2023/09/16 07:11:07;;;;;;;3.00;2.80;;;14.30;99.90;;;;;;5017129;28;20080;-69
2023/09/16 07:13:32;;;;;;;2.67;2.47;;;14.40;99.90;;;;;;5017042;28;20037;-68
2023/09/16 07:15:58;;;;;;;2.97;2.78;;;14.50;99.90;;;;;;5000882;28;20055;-69
2023/09/16 07:18:24;;;;;;;2.90;2.70;;;14.80;99.90;;;;;;5017430;28;20049;-66
2023/09/16 07:20:49;;;;;;;3.03;2.83;;;14.90;99.90;;;;;;5016954;28;20057;-66
2023/09/16 07:23:15;;;;;;;2.70;2.50;;;14.50;99.90;;;;;;5016872;28;20492;-68
2023/09/16 07:25:41;;;;;;;2.78;2.58;;;14.50;99.90;;;;;;5016818;28;20050;-67
2023/09/16 07:28:07;;;;;;;2.60;2.40;;;14.50;99.90;;;;;;5016631;28;20077;-66
2023/09/16 07:30:34;;;;;;;3.72;2.70;;;14.40;99.90;;;;;;5016675;28;20441;-66
2023/09/16 07:32:59;;;;;;;2.08;1.98;;;14.40;99.90;;;;;;5016593;28;20036;-65
2023/09/16 07:35:25;;;;;;;2.60;2.40;;;14.40;99.90;;;;;;5016534;28;20431;-66
2023/09/16 07:37:51;;;;;;;2.55;2.35;;;14.40;99.90;;;;;;5016642;28;20042;-66
2023/09/16 07:40:17;;;;;;;2.72;2.53;;;14.50;99.90;;;;;;5016554;28;20048;-66
2023/09/16 07:42:42;;;;;;;2.50;2.30;;;14.50;99.90;;;;;;5034541;28;20096;-65
2023/09/16 07:45:08;;;;;;;2.60;2.40;;;14.60;99.90;;;;;;5016689;28;20045;-65
2023/09/16 07:47:34;;;;;;;2.85;2.65;;;14.60;99.90;;;;;;5016387;28;20408;-65
2023/09/16 07:50:00;;;;;;;4.18;3.00;;;14.70;99.90;;;;;;4999862;28;20048;-64
2023/09/16 07:52:26;;;;;;;3.22;2.92;;;14.80;99.90;;;;;;4999987;28;20045;-69
2023/09/16 07:54:51;;;;;;;2.17;2.05;;;14.90;99.90;;;;;;5015111;28;20048;-66
2023/09/16 07:57:17;;;;;;;3.00;2.72;;;15.20;99.90;;;;;;5016194;28;20136;-65
2023/09/16 07:59:43;;;;;;;3.45;2.85;;;15.50;99.90;;;;;;5034132;28;20053;-66
2023/09/16 08:02:08;;;;;;;3.30;3.00;;;15.70;99.90;;;;;;5033786;28;20045;-66
2023/09/16 08:04:34;;;;;;;2.17;2.08;;;15.90;99.90;;;;;;5016215;28;20051;-66
2023/09/16 08:07:00;;;;;;;2.67;2.47;;;16.00;99.90;;;;;;5033912;28;20037;-65
2023/09/16 08:09:26;;;;;;;2.97;2.70;;;16.10;99.90;;;;;;5033881;28;20535;-66
2023/09/16 08:11:51;;;;;;;2.60;2.40;;;16.10;99.90;;;;;;5016158;28;20124;-66
2023/09/16 08:14:17;;;;;;;2.10;2.00;;;16.40;99.90;;;;;;4999773;28;20099;-65
2023/09/16 08:16:42;;;;;;;2.42;2.22;;;16.60;99.90;;;;;;5015686;28;20064;-65
2023/09/16 08:19:08;;;;;;;2.60;2.40;;;16.30;99.90;;;;;;5033627;28;20406;-65
2023/09/16 08:21:34;;;;;;;2.40;2.20;;;16.30;99.90;;;;;;5015517;28;20048;-66
2023/09/16 08:23:59;;;;;;;2.28;2.08;;;16.30;99.90;;;;;;5015496;28;20037;-66
2023/09/16 08:26:25;;;;;;;2.30;2.10;;;16.50;99.90;;;;;;5015650;28;20140;-66
2023/09/16 08:28:50;;;;;;;2.70;2.40;;;16.60;99.90;;;;;;5015867;28;20481;-67
2023/09/16 08:31:16;;;;;;;2.20;2.08;;;16.70;99.90;;;;;;5033612;28;20463;-67
2023/09/16 08:33:41;;;;;;;2.65;2.45;;;16.80;99.90;;;;;;5033287;28;20120;-67
2023/09/16 08:36:07;;;;;;;1.80;1.70;;;16.60;99.90;;;;;;5015436;28;20041;-67
2023/09/16 08:38:32;;;;;;;2.58;2.38;;;16.90;99.90;;;;;;4999081;28;20046;-67
2023/09/16 08:41:17;;;;;;;2.00;1.90;;;17.00;99.90;;;;;;4999078;28;20091;-66
2023/09/16 08:43:47;;;;;;;2.58;2.38;;;17.10;99.90;;;;;;5015309;28;20168;-66
2023/09/16 08:46:17;;;;;;;2.17;2.00;;;17.60;99.90;;;;;;5015344;28;20079;-66
2023/09/16 08:48:45;;;;;;;2.05;1.92;;;;;;;;;;5033265;28;20163;-66
2023/09/16 08:51:15;;;;;;;2.22;2.10;;;17.40;99.90;;;;;;5033221;28;20092;-66
2023/09/16 08:53:42;;;;;;;2.45;2.25;;;17.50;99.90;;;;;;5033253;28;20037;-68
2023/09/16 08:56:09;;;;;;;2.03;1.80;;;17.70;99.90;;;;;;5032927;28;20041;-69
2023/09/16 08:58:35;;;;;;;2.05;1.95;;;17.60;99.90;;;;;;5033147;28;20397;-69
2023/09/16 09:01:02;;;;;;;2.20;2.00;;;17.70;99.90;;;;;;5014923;28;20063;-69
2023/09/16 09:03:31;;;;;;;2.10;2.00;;;17.70;99.90;;;;;;5014886;28;20049;-69
2023/09/16 09:05:57;;;;;;;3.00;2.80;;;17.90;99.90;;;;;;5032440;28;20478;-69
2023/09/16 09:08:22;;;;;;;2.33;2.13;;;18.00;99.90;;;;;;5014886;28;20049;-68
2023/09/16 09:10:49;;;;;;;2.30;2.10;;;18.00;99.90;;;;;;5015082;28;20052;-69
2023/09/16 09:13:15;;;;;;;2.53;2.33;;;18.10;99.90;;;;;;4998758;28;20076;-69
2023/09/16 09:15:47;;;;;;;2.88;2.35;;;18.20;99.90;;;;;;5015311;28;20096;-68
2023/09/16 09:18:18;;;;;;;1.98;1.88;;;18.40;99.90;;;;;;5015285;28;20038;-69
2023/09/16 09:20:44;;;;;;;2.20;2.00;;;18.40;99.90;;;;;;4998976;28;20100;-67
2023/09/16 09:23:10;;;;;;;2.13;2.00;;;18.40;99.90;;;;;;5014929;28;20121;-69
2023/09/16 09:25:36;;;;;;;2.20;2.00;;;18.40;99.90;;;;;;5014809;28;20082;-68
2023/09/16 09:28:04;;;;;;;1.70;1.60;;;19.30;99.90;;;;;;5015086;28;20616;-68
2023/09/16 09:30:31;;;;;;;1.67;1.58;;;18.60;99.90;;;;;;5014878;28;20040;-69
2023/09/16 09:32:58;;;;;;;2.05;1.92;;;18.60;99.90;;;;;;5014832;28;20099;-69
2023/09/16 09:35:25;;;;;;;1.88;1.77;;;18.70;99.70;;;;;;5014904;28;20127;-68
2023/09/16 09:37:51;;;;;;;2.75;1.55;;;18.80;98.80;;;;;;5014934;28;20046;-70
2023/09/16 09:40:18;;;;;;;1.92;1.80;;;18.80;97.40;;;;;;5014857;28;20041;-70
2023/09/16 09:42:48;;;;;;;3.05;2.40;;;18.90;97.00;;;;;;5014852;28;20048;-69
2023/09/16 09:45:15;;;;;;;1.60;1.50;;;19.00;90.60;;;;;;5015063;28;20045;-71
2023/09/16 09:47:41;;;;;;;1.60;1.50;;;19.10;59.10;;;;;;5014738;28;20083;-70
2023/09/16 09:50:12;;;;;;;2.30;2.10;;;19.20;27.50;;;;;;5014474;28;20033;-74
2023/09/16 09:52:38;;;;;;;2.10;1.60;;;19.20;11.50;;;;;;5014879;28;20081;-74
2023/09/16 09:55:04;;;;;;;1.83;1.73;;;19.20;5.10;;;;;;5014963;28;20080;-72
2023/09/16 09:57:30;;;;;;;1.77;1.67;;;19.20;8.70;;;;;;5014635;28;20042;-72
2023/09/16 09:59:57;;;;;;;1.90;1.80;;;19.20;7.50;;;;;;5014568;28;20504;-72
2023/09/16 10:02:25;;;;;;;2.00;1.85;;;19.20;7.50;;;;;;4998273;28;20067;-73
2023/09/16 10:04:57;;;;;;;1.50;1.40;;;19.20;6.80;;;;;;5014537;28;20420;-73
2023/09/16 10:07:25;;;;;;;1.70;1.60;;;19.40;8.80;;;;;;5014784;28;20076;-73
2023/09/16 10:09:51;;;;;;;1.50;1.40;;;19.60;7.10;;;;;;4998035;28;20124;-73
2023/09/16 10:12:18;;;;;;;1.70;1.60;;;19.80;1.70;;;;;;5014481;28;20128;-72
2023/09/16 10:14:48;;;;;;;2.15;1.98;;;20.00;1.00;;;;;;5014490;28;20096;-71
2023/09/16 10:17:14;;;;;;;1.80;1.70;;;;;;;;;;4997585;28;20037;-70
2023/09/16 10:19:40;;;;;;;1.90;1.77;;;20.40;1.00;;;;;;5017247;28;20072;-71
2023/09/16 10:22:25;;;;;;;1.90;1.70;;;20.50;1.00;;;;;;5001922;28;20041;-72
2023/09/16 10:24:53;;;;;;;1.83;1.73;;;20.60;1.00;;;;;;5001779;28;20096;-73
2023/09/16 10:27:23;;;;;;;2.20;1.90;;;20.60;1.00;;;;;;5017880;28;20175;-74
2023/09/16 10:29:51;;;;;;;1.77;1.67;;;21.40;1.00;;;;;;5017806;28;20481;-72
2023/09/16 10:32:17;;;;;;;1.70;1.60;;;20.70;1.00;;;;;;5001517;28;20045;-73
2023/09/16 10:34:45;;;;;;;2.03;1.90;;;20.80;1.00;;;;;;5017673;28;20038;-72
2023/09/16 10:37:12;;;;;;;2.00;1.90;;;20.80;99.90;;;;;;5017894;28;20374;-72
2023/09/16 10:39:39;;;;;;;2.30;2.15;;;20.90;99.90;;;;;;5017857;28;20057;-71
2023/09/16 10:42:05;;;;;;;2.28;2.08;;;20.90;99.90;;;;;;5017597;28;20042;-71
2023/09/16 10:44:32;;;;;;;1.85;1.75;;;21.00;99.90;;;;;;5017842;28;20042;-72
2023/09/16 10:47:04;;;;;;;2.20;2.05;;;20.70;99.90;;;;;;5017520;28;20041;-71
2023/09/16 10:49:30;;;;;;;2.55;2.17;;;21.10;1.00;;;;;;5017434;28;20033;-71
2023/09/16 10:52:07;;;;;;;2.30;2.10;;;21.00;1.00;;;;;;5017460;28;20050;-71
2023/09/16 10:54:59;;;;;;;2.33;2.13;;;21.20;22.70;;;;;;5017297;28;20041;-71
2023/09/16 10:57:30;;;;;;;2.10;1.90;;;21.20;99.90;;;;;;5017319;28;20378;-73
2023/09/16 11:00:00;;;;;;;2.17;1.83;;;21.00;99.90;;;;;;5017330;28;20129;-71
2023/09/16 11:02:35;;;;;;;2.00;1.90;;;21.40;89.40;;;;;;5017248;28;20080;-73
2023/09/16 11:05:00;;;;;;;1.90;1.80;;;21.30;99.90;;;;;;5035194;28;20448;-72
2023/09/16 11:07:26;;;;;;;1.60;1.50;;;21.40;99.90;;;;;;5000813;28;20106;-70
2023/09/16 11:09:56;;;;;;;1.85;1.75;;;21.40;99.90;;;;;;5017050;28;20431;-70
2023/09/16 11:12:22;;;;;;;1.90;1.80;;;21.40;1.00;;;;;;5017314;28;20068;-70
2023/09/16 11:14:52;;;;;;;1.67;1.58;;;21.40;19.40;;;;;;5017241;28;20041;-69
2023/09/16 11:17:18;;;;;;;1.50;1.40;;;21.50;1.00;;;;;;5016850;28;20053;-70
2023/09/16 11:19:46;;;;;;;1.73;1.63;;;21.50;99.90;;;;;;5017260;28;20128;-69
2023/09/16 11:22:13;;;;;;;1.85;1.60;;;21.60;1.00;;;;;;5034701;28;20041;-70
2023/09/16 11:24:39;;;;;;;1.80;1.70;;;22.70;99.90;;;;;;5016902;28;20124;-70
2023/09/16 11:27:05;;;;;;;1.70;1.60;;;21.50;1.00;;;;;;5034627;28;20042;-70
2023/09/16 11:29:31;;;;;;;1.75;1.65;;;21.70;99.90;;;;;;5000112;28;20042;-70
2023/09/16 11:31:57;;;;;;;1.55;1.45;;;21.10;99.90;;;;;;5016627;28;20255;-69
2023/09/16 11:34:27;;;;;;;1.90;1.80;;;21.80;90.60;;;;;;5016679;28;20037;-69
2023/09/16 11:37:00;;;;;;;1.30;1.20;;;21.80;99.90;;;;;;5034413;28;20551;-70
2023/09/16 11:39:46;;;;;;;1.52;1.40;;;21.70;1.00;;;;;;5016856;28;20100;-70
2023/09/16 11:42:14;;;;;;;1.50;1.40;;;21.70;99.90;;;;;;5000197;28;20048;-70
2023/09/16 11:44:41;;;;;;;1.52;1.42;;;21.70;1.00;;;;;;5016644;28;20052;-70
2023/09/16 11:47:09;;;;;;;1.30;1.20;;;21.80;1.00;;;;;;5016706;28;20041;-70
2023/09/16 11:49:35;;;;;;;0.93;0.93;;;21.90;1.00;;;;;;5016299;28;20117;-70
2023/09/16 11:52:01;;;;;;;1.35;1.25;;;22.00;1.00;;;;;;5016758;28;20120;-69
2023/09/16 11:54:27;;;;;;;1.00;1.00;;;22.00;99.90;;;;;;5016416;28;20436;-69
2023/09/16 11:56:54;;;;;;;1.48;1.38;;;21.60;99.90;;;;;;5016322;28;20041;-69
2023/09/16 11:59:20;;;;;;;1.40;1.30;;;22.00;1.00;;;;;;5033926;28;20041;-69
2023/09/16 12:01:47;;;;;;;2.03;1.38;;;22.00;1.00;;;;;;5016131;28;20053;-70
2023/09/16 12:04:15;;;;;;;1.38;1.27;;;22.10;1.00;;;;;;5016515;28;20514;-69
2023/09/16 12:06:41;;;;;;;1.30;1.20;;;22.10;1.00;;;;;;5016386;28;20088;-70
2023/09/16 12:09:09;;;;;;;1.35;1.10;;;22.10;99.90;;;;;;5033750;28;20095;-69
2023/09/16 12:11:36;;;;;;;2.88;1.50;;;22.10;99.90;;;;;;5016013;28;20446;-69
2023/09/16 12:14:03;;;;;;;1.50;1.40;;;22.30;99.90;;;;;;4999684;28;20116;-69
2023/09/16 12:16:29;;;;;;;1.40;1.30;;;22.30;99.90;;;;;;5012420;28;20069;-69
2023/09/16 12:18:55;;;;;;;1.20;1.10;;;22.30;99.90;;;;;;5012880;28;20049;-72
2023/09/16 12:21:21;;;;;;;1.40;1.30;;;22.30;99.90;;;;;;5012628;28;20095;-72
2023/09/16 12:23:48;;;;;;;2.17;1.20;;;22.30;99.90;;;;;;4996182;28;20516;-72
2023/09/16 12:26:13;;;;;;;1.52;1.35;;;22.30;99.90;;;;;;5012390;28;20128;-72
2023/09/16 12:28:39;;;;;;;1.95;1.38;;;22.30;99.90;;;;;;5012315;28;20125;-72
2023/09/16 12:31:10;;;;;;;1.20;1.20;;;22.30;97.30;;;;;;5012415;28;20409;-75
2023/09/16 12:33:45;;;;;;;1.50;1.40;;;22.30;77.80;;;;;;5012568;28;20042;-72
2023/09/16 12:36:24;;;;;;;1.20;1.10;;;22.30;20.20;;;;;;4996178;28;20512;-73
2023/09/16 12:38:50;;;;;;;1.10;1.00;;;22.40;1.00;;;;;;5012535;28;20042;-72
2023/09/16 12:41:16;;;;;;;1.15;1.00;;;22.50;20.80;;;;;;4995306;28;20044;-74
2023/09/16 12:43:44;;;;;;;1.30;1.20;;;22.60;1.00;;;;;;5012166;28;20045;-72
2023/09/16 12:46:11;;;;;;;0.85;0.80;;;22.60;1.00;;;;;;5013599;28;20056;-72